createdAt,value
2023-04-19T00:00:27.170Z,75.93
2023-04-19T00:02:58.378Z,76.06
2023-04-19T00:05:27.363Z,76.32
2023-04-19T00:07:58.677Z,76.05
2023-04-19T00:10:28.692Z,76.37
2023-04-19T00:12:57.603Z,75.80
2023-04-19T00:15:26.149Z,75.85
2023-04-19T00:18:04.833Z,76.32
2023-04-19T00:20:33.888Z,76.36
2023-04-19T00:23:02.255Z,76.22
2023-04-19T00:25:32.861Z,76.61
2023-04-19T00:28:01.470Z,76.53
2023-04-19T00:30:29.889Z,76.50
2023-04-19T00:33:12.827Z,76.42
2023-04-19T00:35:42.310Z,76.40
2023-04-19T00:38:10.677Z,76.68
2023-04-19T00:40:40.516Z,76.71
2023-04-19T00:43:08.898Z,76.77
2023-04-19T00:45:37.980Z,76.96
2023-04-19T00:48:06.992Z,76.65
2023-04-19T00:50:36.138Z,76.98
2023-04-19T00:53:04.698Z,76.92
2023-04-19T00:55:33.145Z,76.96
2023-04-19T00:58:12.828Z,77.16
2023-04-19T01:00:41.481Z,76.64
2023-04-19T01:03:10.126Z,76.87
2023-04-19T01:05:38.651Z,77.03
2023-04-19T01:08:13.331Z,76.97
2023-04-19T01:10:41.708Z,76.93
2023-04-19T01:13:10.071Z,77.05
2023-04-19T01:15:39.992Z,76.91
2023-04-19T01:18:08.395Z,77.03
2023-04-19T01:20:36.826Z,77.34
2023-04-19T01:23:06.800Z,77.58
2023-04-19T01:25:35.153Z,77.29
2023-04-19T01:28:03.522Z,77.66
2023-04-19T01:30:31.945Z,77.24
2023-04-19T01:33:00.431Z,77.20
2023-04-19T01:35:28.808Z,77.29
2023-04-19T01:37:59.205Z,78.03
2023-04-19T01:40:29.276Z,77.76
2023-04-19T01:42:58.541Z,78.00
2023-04-19T01:45:27.069Z,77.69
2023-04-19T01:47:57.074Z,78.07
2023-04-19T01:50:25.447Z,78.21
2023-04-19T01:52:53.924Z,77.71
2023-04-19T01:55:22.326Z,78.07
2023-04-19T01:57:54.609Z,77.90
2023-04-19T02:00:23.636Z,77.67
2023-04-19T02:02:52.167Z,77.40
2023-04-19T02:05:21.169Z,78.15
2023-04-19T02:07:49.525Z,78.11
2023-04-19T02:10:17.963Z,78.23
2023-04-19T02:12:46.413Z,78.20
2023-04-19T02:15:26.130Z,77.67
2023-04-19T02:18:06.793Z,77.65
2023-04-19T02:20:35.322Z,78.08
2023-04-19T02:23:03.730Z,77.95
2023-04-19T02:25:32.234Z,77.93
2023-04-19T02:28:00.581Z,78.29
2023-04-19T02:30:30.260Z,78.21
2023-04-19T02:33:00.030Z,77.82
2023-04-19T02:35:28.507Z,78.02
2023-04-19T02:37:59.266Z,78.07
2023-04-19T02:40:27.620Z,78.33
2023-04-19T02:42:55.970Z,77.93
2023-04-19T02:45:24.505Z,78.15
2023-04-19T02:47:54.252Z,77.77
2023-04-19T02:50:22.907Z,78.06
2023-04-19T02:52:54.671Z,77.94
2023-04-19T02:55:23.334Z,78.31
2023-04-19T02:57:51.974Z,78.02
2023-04-19T03:00:20.647Z,78.10
2023-04-19T03:02:49.108Z,78.61
2023-04-19T03:05:19.159Z,78.71
2023-04-19T03:07:48.285Z,78.59
2023-04-19T03:10:17.011Z,78.86
2023-04-19T03:12:47.183Z,78.35
2023-04-19T03:15:16.162Z,78.51
2023-04-19T03:17:44.584Z,78.51
2023-04-19T03:20:13.402Z,78.35
2023-04-19T03:22:43.256Z,79.10
2023-04-19T03:25:13.460Z,78.41
2023-04-19T03:27:41.829Z,79.00
2023-04-19T03:30:11.570Z,79.13
2023-04-19T03:32:40.240Z,78.92
2023-04-19T03:35:09.358Z,78.67
2023-04-19T03:37:38.118Z,79.21
2023-04-19T03:40:09.127Z,79.09
2023-04-19T03:42:37.610Z,79.04
2023-04-19T03:45:06.739Z,79.19
2023-04-19T03:47:35.074Z,78.82
2023-04-19T03:50:03.523Z,79.54
2023-04-19T03:52:31.794Z,78.91
2023-04-19T03:55:00.386Z,79.58
2023-04-19T03:57:30.180Z,79.33
2023-04-19T04:00:01.335Z,79.33
2023-04-19T04:02:29.906Z,79.63
2023-04-19T04:04:59.257Z,79.21
2023-04-19T04:07:27.695Z,79.61
2023-04-19T04:09:56.206Z,79.63
2023-04-19T04:12:24.548Z,79.36
2023-04-19T04:14:54.281Z,79.78
2023-04-19T04:17:24.374Z,79.58
2023-04-19T04:19:53.005Z,79.52
2023-04-19T04:22:21.822Z,79.77
2023-04-19T04:24:50.279Z,79.88
2023-04-19T04:27:21.104Z,79.91
2023-04-19T04:29:49.554Z,79.48
2023-04-19T04:32:23.212Z,80.14
2023-04-19T04:34:52.002Z,80.22
2023-04-19T04:37:20.874Z,79.85
2023-04-19T04:39:49.324Z,80.35
2023-04-19T04:42:17.663Z,79.94
2023-04-19T04:44:47.345Z,80.15
2023-04-19T04:47:16.029Z,80.56
2023-04-19T04:49:45.821Z,80.77
2023-04-19T04:52:14.142Z,80.61
2023-04-19T04:54:42.568Z,80.72
2023-04-19T04:57:10.920Z,81.43
2023-04-19T04:59:39.263Z,81.40
2023-04-19T05:02:07.685Z,81.97
2023-04-19T05:04:36.121Z,82.27
2023-04-19T05:07:07.053Z,81.96
2023-04-19T05:09:35.523Z,81.96
2023-04-19T05:12:03.867Z,81.96
2023-04-19T05:14:32.209Z,81.86
2023-04-19T05:17:02.634Z,82.12
2023-04-19T05:19:30.948Z,81.42
2023-04-19T05:21:59.704Z,81.82
2023-04-19T05:24:29.431Z,81.76
2023-04-19T05:27:02.798Z,81.89
2023-04-19T05:29:31.198Z,81.69
2023-04-19T05:32:01.852Z,82.35
2023-04-19T05:34:30.424Z,82.39
2023-04-19T05:37:00.475Z,82.36
2023-04-19T05:39:30.249Z,81.98
2023-04-19T05:41:59.867Z,82.93
2023-04-19T05:44:28.189Z,82.30
2023-04-19T05:46:56.494Z,82.65
2023-04-19T05:49:25.373Z,82.67
2023-04-19T05:51:55.463Z,82.89
2023-04-19T05:54:23.996Z,83.08
2023-04-19T05:56:53.857Z,82.97
2023-04-19T05:59:22.401Z,82.64
2023-04-19T06:01:50.989Z,82.29
2023-04-19T06:04:19.970Z,82.54
2023-04-19T06:06:48.559Z,82.17
2023-04-19T06:09:18.158Z,82.63
2023-04-19T06:11:50.891Z,82.19
2023-04-19T06:14:21.514Z,82.17
2023-04-19T06:16:49.887Z,82.61
2023-04-19T06:19:18.211Z,82.29
2023-04-19T06:21:47.730Z,82.63
2023-04-19T06:24:16.484Z,82.32
2023-04-19T06:26:45.036Z,82.66
2023-04-19T06:29:15.580Z,82.47
2023-04-19T06:31:46.305Z,82.73
2023-04-19T06:34:14.779Z,83.08
2023-04-19T06:36:43.228Z,82.57
2023-04-19T06:39:11.593Z,82.80
2023-04-19T06:41:40.079Z,82.92
2023-04-19T06:44:08.537Z,83.49
2023-04-19T06:46:36.936Z,82.98
2023-04-19T06:49:06.820Z,82.86
2023-04-19T06:51:35.351Z,82.90
2023-04-19T06:54:03.737Z,82.92
2023-04-19T06:56:42.248Z,83.22
2023-04-19T06:59:10.717Z,83.55
2023-04-19T07:01:39.610Z,82.80
2023-04-19T07:04:10.144Z,83.22
2023-04-19T07:06:39.661Z,83.09
2023-04-19T07:09:09.117Z,83.09
2023-04-19T07:11:37.560Z,83.09
2023-04-19T07:14:06.009Z,83.04
2023-04-19T07:16:34.564Z,83.02
2023-04-19T07:19:03.664Z,83.00
2023-04-19T07:21:35.083Z,83.08
2023-04-19T07:24:07.471Z,82.90
2023-04-19T07:26:36.100Z,82.61
2023-04-19T07:29:05.853Z,83.38
2023-04-19T07:31:34.318Z,83.55
2023-04-19T07:34:05.676Z,83.54
2023-04-19T07:36:37.112Z,83.16
2023-04-19T07:39:05.850Z,82.92
2023-04-19T07:41:35.958Z,83.22
2023-04-19T07:44:05.977Z,82.98
2023-04-19T07:46:34.376Z,83.45
2023-04-19T07:49:04.595Z,83.30
2023-04-19T07:51:33.095Z,83.20
2023-04-19T07:54:05.182Z,83.30
2023-04-19T07:56:34.614Z,82.80
2023-04-19T07:59:08.434Z,83.03
2023-04-19T08:01:38.106Z,83.30
2023-04-19T08:04:07.087Z,83.54
2023-04-19T08:06:37.910Z,83.00
2023-04-19T08:09:07.923Z,83.61
2023-04-19T08:11:36.355Z,83.20
2023-04-19T08:14:28.281Z,83.26
2023-04-19T08:19:24.545Z,83.38
2023-04-19T08:21:53.078Z,83.82
2023-04-19T08:24:22.812Z,83.85
2023-04-19T08:26:54.651Z,83.54
2023-04-19T08:29:23.514Z,83.38
2023-04-19T08:31:52.231Z,83.46
2023-04-19T08:34:21.119Z,84.04
2023-04-19T08:37:00.129Z,83.89
2023-04-19T08:39:34.778Z,83.54
2023-04-19T08:42:11.027Z,83.85
2023-04-19T08:47:29.641Z,83.58
2023-04-19T08:50:14.048Z,83.66
2023-04-19T08:52:54.793Z,83.66
2023-04-19T08:55:29.524Z,83.77
2023-04-19T08:57:58.642Z,83.50
2023-04-19T09:00:31.415Z,83.35
2023-04-19T09:03:00.216Z,83.39
2023-04-19T09:05:29.164Z,83.36
2023-04-19T09:08:25.007Z,83.95
2023-04-19T09:10:59.308Z,83.42
2023-04-19T09:13:29.292Z,83.53
2023-04-19T09:15:59.554Z,84.08
2023-04-19T09:18:30.712Z,83.82
2023-04-19T09:21:01.106Z,83.48
2023-04-19T09:23:30.051Z,83.62
2023-04-19T09:28:32.784Z,83.77
2023-04-19T09:31:33.058Z,83.48
2023-04-19T09:34:14.106Z,83.54
2023-04-19T09:36:42.856Z,83.50
2023-04-19T09:39:12.080Z,83.66
2023-04-19T09:41:53.668Z,83.82
2023-04-19T09:46:54.148Z,83.84
2023-04-19T09:49:37.581Z,83.40
2023-04-19T09:52:15.402Z,83.94
2023-04-19T09:54:44.297Z,83.30
2023-04-19T09:57:14.312Z,84.17
2023-04-19T09:59:42.768Z,84.29
2023-04-19T10:02:13.685Z,84.62
2023-04-19T10:04:59.582Z,84.41
2023-04-19T10:07:34.336Z,84.20
2023-04-19T10:10:16.149Z,84.47
2023-04-19T10:13:15.286Z,84.36
2023-04-19T10:15:51.341Z,84.64
2023-04-19T10:18:24.716Z,84.04
2023-04-19T10:21:00.135Z,83.87
2023-04-19T10:23:30.000Z,84.14
2023-04-19T10:25:59.566Z,84.23
2023-04-19T10:28:31.107Z,83.87
2023-04-19T10:31:03.683Z,84.32
2023-04-19T10:33:35.974Z,84.25
2023-04-19T10:36:09.569Z,84.13
2023-04-19T10:38:40.165Z,84.31
2023-04-19T10:41:16.960Z,84.23
2023-04-19T10:43:49.120Z,83.88
2023-04-19T10:46:37.430Z,84.19
2023-04-19T10:49:07.921Z,84.32
2023-04-19T10:51:38.604Z,84.28
2023-04-19T10:54:08.492Z,84.17
2023-04-19T10:57:00.463Z,84.07
2023-04-19T10:59:32.416Z,83.58
2023-04-19T11:02:03.252Z,83.71
2023-04-19T11:05:01.191Z,83.97
2023-04-19T11:07:37.365Z,83.88
2023-04-19T11:10:06.718Z,83.80
2023-04-19T11:12:36.116Z,83.47
2023-04-19T11:15:09.531Z,83.35
2023-04-19T11:17:39.556Z,83.37
2023-04-19T11:20:10.908Z,83.02
2023-04-19T11:22:41.028Z,83.18
2023-04-19T11:25:12.124Z,82.96
2023-04-19T11:27:41.538Z,83.14
2023-04-19T11:30:13.976Z,82.60
2023-04-19T11:32:49.180Z,82.89
2023-04-19T11:35:20.973Z,82.47
2023-04-19T11:37:49.454Z,82.31
2023-04-19T11:40:18.755Z,81.88
2023-04-19T11:42:47.777Z,81.79
2023-04-19T11:45:31.201Z,81.55
2023-04-19T11:48:01.303Z,81.58
2023-04-19T11:50:34.664Z,81.24
2023-04-19T11:53:12.441Z,80.84
2023-04-19T11:55:44.036Z,80.47
2023-04-19T11:58:29.264Z,80.35
2023-04-19T12:01:04.495Z,80.02
2023-04-19T12:03:33.219Z,79.75
2023-04-19T12:06:06.105Z,79.80
2023-04-19T12:08:36.329Z,79.71
2023-04-19T12:11:09.101Z,79.65
2023-04-19T12:13:38.609Z,79.29
2023-04-19T12:16:09.597Z,79.55
2023-04-19T12:18:49.798Z,79.46
2023-04-19T12:21:28.406Z,79.18
2023-04-19T12:23:58.264Z,79.32
2023-04-19T12:26:28.318Z,79.30
2023-04-19T12:28:57.148Z,79.38
2023-04-19T12:31:27.260Z,79.54
2023-04-19T12:33:55.932Z,79.47
2023-04-19T12:36:24.315Z,79.17
2023-04-19T12:38:52.839Z,78.77
2023-04-19T12:41:21.269Z,79.18
2023-04-19T12:43:50.964Z,79.25
2023-04-19T12:46:19.567Z,79.77
2023-04-19T12:48:49.357Z,79.90
2023-04-19T12:51:17.678Z,79.70
2023-04-19T12:53:49.144Z,80.21
2023-04-19T12:56:17.992Z,80.26
2023-04-19T12:58:46.603Z,80.15
2023-04-19T13:01:17.676Z,80.59
2023-04-19T13:03:46.337Z,80.50
2023-04-19T13:06:17.268Z,80.85
2023-04-19T13:08:47.721Z,80.70
2023-04-19T13:11:22.989Z,80.86
2023-04-19T13:13:53.587Z,80.77
2023-04-19T13:16:22.689Z,80.85
2023-04-19T13:18:52.663Z,81.37
2023-04-19T13:21:23.581Z,81.25
2023-04-19T13:23:52.476Z,80.96
2023-04-19T13:26:20.945Z,81.57
2023-04-19T13:28:49.355Z,81.53
2023-04-19T13:31:17.912Z,81.67
2023-04-19T13:33:46.436Z,81.39
2023-04-19T13:36:15.137Z,81.44
2023-04-19T13:38:45.138Z,81.82
2023-04-19T13:41:13.584Z,81.37
2023-04-19T13:43:42.096Z,81.61
2023-04-19T13:46:10.586Z,81.26
2023-04-19T13:48:38.997Z,81.25
2023-04-19T13:51:08.530Z,81.31
2023-04-19T13:53:36.894Z,81.68
2023-04-19T13:56:09.354Z,81.17
2023-04-19T13:58:37.820Z,81.41
2023-04-19T14:01:08.868Z,81.56
2023-04-19T14:03:37.698Z,81.37
2023-04-19T14:06:07.248Z,81.33
2023-04-19T14:08:35.577Z,81.36
2023-04-19T14:11:04.133Z,80.79
2023-04-19T14:13:33.895Z,80.91
2023-04-19T14:16:02.303Z,81.00
2023-04-19T14:18:30.906Z,81.07
2023-04-19T14:21:00.745Z,81.19
2023-04-19T14:23:28.973Z,80.78
2023-04-19T14:25:57.358Z,80.89
2023-04-19T14:28:26.123Z,80.91
2023-04-19T14:30:56.018Z,81.04
2023-04-19T14:33:25.368Z,80.80
2023-04-19T14:35:54.121Z,81.27
2023-04-19T14:38:22.522Z,81.41
2023-04-19T14:40:51.226Z,81.54
2023-04-19T14:43:19.738Z,81.52
2023-04-19T14:45:49.848Z,81.71
2023-04-19T14:48:22.096Z,81.74
2023-04-19T14:50:51.073Z,81.53
2023-04-19T14:53:19.552Z,81.41
2023-04-19T14:55:47.956Z,81.86
2023-04-19T14:58:16.381Z,81.51
2023-04-19T15:00:45.669Z,81.73
2023-04-19T15:03:14.382Z,82.02
2023-04-19T15:05:44.562Z,81.72
2023-04-19T15:08:28.976Z,81.95
2023-04-19T15:10:59.169Z,81.85
2023-04-19T15:13:27.532Z,81.79
2023-04-19T15:15:56.248Z,81.98
2023-04-19T15:18:24.727Z,82.36
2023-04-19T15:20:54.519Z,82.41
2023-04-19T15:23:25.578Z,82.26
2023-04-19T15:25:54.127Z,82.65
2023-04-19T15:28:24.676Z,82.64
2023-04-19T15:30:59.654Z,82.21
2023-04-19T15:33:28.295Z,82.60
2023-04-19T15:35:58.754Z,82.13
2023-04-19T15:38:29.446Z,82.37
2023-04-19T15:40:59.906Z,82.13
2023-04-19T15:43:28.386Z,82.41
2023-04-19T15:45:56.876Z,81.97
2023-04-19T15:48:25.517Z,81.85
2023-04-19T15:50:53.897Z,81.94
2023-04-19T15:53:23.922Z,82.30
2023-04-19T15:55:52.913Z,82.44
2023-04-19T15:58:23.961Z,81.77
2023-04-19T16:00:52.385Z,81.73
2023-04-19T16:03:21.048Z,81.97
2023-04-19T16:05:51.706Z,81.26
2023-04-19T16:08:20.750Z,81.51
2023-04-19T16:10:51.039Z,81.23
2023-04-19T16:13:19.586Z,81.28
2023-04-19T16:15:48.049Z,80.83
2023-04-19T16:18:16.740Z,80.93
2023-04-19T16:20:45.193Z,80.54
2023-04-19T16:23:14.515Z,80.69
2023-04-19T16:25:53.374Z,81.02
2023-04-19T16:28:22.678Z,80.52
2023-04-19T16:30:51.099Z,80.88
2023-04-19T16:33:19.686Z,81.00
2023-04-19T16:35:48.110Z,80.53
2023-04-19T16:38:16.473Z,80.77
2023-04-19T16:40:47.835Z,80.77
2023-04-19T16:43:17.720Z,80.36
2023-04-19T16:45:46.070Z,80.94
2023-04-19T16:48:14.685Z,80.74
2023-04-19T16:50:43.118Z,80.33
2023-04-19T16:53:13.081Z,80.54
2023-04-19T16:55:41.611Z,80.11
2023-04-19T16:58:11.174Z,80.72
2023-04-19T17:00:41.020Z,80.61
2023-04-19T17:03:12.005Z,80.32
2023-04-19T17:05:40.756Z,80.39
2023-04-19T17:08:11.939Z,80.15
2023-04-19T17:10:40.686Z,80.41
2023-04-19T17:13:13.867Z,80.95
2023-04-19T17:15:43.976Z,80.41
2023-04-19T17:18:12.523Z,80.88
2023-04-19T17:20:41.024Z,80.37
2023-04-19T17:23:10.895Z,81.03
2023-04-19T17:25:39.345Z,81.02
2023-04-19T17:28:10.274Z,81.06
2023-04-19T17:30:38.953Z,80.61
2023-04-19T17:33:10.248Z,80.55
2023-04-19T17:35:38.733Z,80.62
2023-04-19T17:38:07.165Z,80.68
2023-04-19T17:40:35.587Z,80.45
2023-04-19T17:43:04.017Z,80.78
2023-04-19T17:45:32.389Z,80.46
2023-04-19T17:48:02.252Z,80.86
2023-04-19T17:50:32.146Z,80.52
2023-04-19T17:53:00.608Z,80.41
2023-04-19T17:55:28.995Z,80.38
2023-04-19T17:57:57.415Z,80.23
2023-04-19T18:00:25.900Z,80.60
2023-04-19T18:02:54.563Z,80.71
2023-04-19T18:05:23.292Z,80.58
2023-04-19T18:07:53.136Z,80.49
2023-04-19T18:10:22.130Z,80.50
2023-04-19T18:12:50.737Z,80.50
2023-04-19T18:15:19.151Z,80.86
2023-04-19T18:17:47.528Z,80.74
2023-04-19T18:20:16.228Z,80.48
2023-04-19T18:22:44.638Z,80.39
2023-04-19T18:25:14.624Z,80.15
2023-04-19T18:27:43.078Z,80.09
2023-04-19T18:30:12.433Z,80.03
2023-04-19T18:32:40.819Z,79.90
2023-04-19T18:35:12.370Z,79.96
2023-04-19T18:37:41.721Z,79.90
2023-04-19T18:40:12.624Z,79.94
2023-04-19T18:42:46.742Z,80.21
2023-04-19T18:45:17.025Z,80.18
2023-04-19T18:47:45.531Z,80.40
2023-04-19T18:50:18.068Z,80.35
2023-04-19T18:52:47.726Z,80.29
2023-04-19T18:55:16.176Z,80.19
2023-04-19T18:57:45.952Z,80.36
2023-04-19T19:00:15.117Z,80.24
2023-04-19T19:02:48.869Z,80.25
2023-04-19T19:05:17.641Z,80.22
2023-04-19T19:07:46.362Z,80.36
2023-04-19T19:10:19.008Z,80.09
2023-04-19T19:12:51.354Z,80.29
2023-04-19T19:15:20.138Z,80.25
2023-04-19T19:17:50.728Z,80.25
2023-04-19T19:20:20.593Z,80.13
2023-04-19T19:22:49.361Z,80.26
2023-04-19T19:25:17.932Z,80.05
2023-04-19T19:28:05.720Z,80.40
2023-04-19T19:30:40.018Z,80.30
2023-04-19T19:33:08.791Z,80.56
2023-04-19T19:35:40.822Z,80.73
2023-04-19T19:38:14.466Z,80.97
2023-04-19T19:41:17.751Z,81.34
2023-04-19T19:43:31.195Z,81.24
2023-04-19T19:46:01.459Z,81.36
2023-04-19T19:48:30.499Z,81.40
2023-04-19T19:51:17.396Z,81.38
2023-04-19T19:53:47.533Z,81.08
2023-04-19T19:56:21.775Z,81.57
2023-04-19T19:58:51.994Z,81.59
2023-04-19T20:01:23.138Z,81.62
2023-04-19T20:03:52.105Z,81.47
2023-04-19T20:08:52.800Z,81.23
2023-04-19T20:11:21.324Z,81.27
2023-04-19T20:13:50.666Z,81.77
2023-04-19T20:16:19.844Z,81.69
2023-04-19T20:18:50.140Z,81.57
2023-04-19T20:21:19.573Z,81.57
2023-04-19T20:23:48.148Z,81.38
2023-04-19T20:26:16.578Z,81.26
2023-04-19T20:28:44.980Z,81.13
2023-04-19T20:31:14.090Z,81.48
2023-04-19T20:33:43.065Z,81.24
2023-04-19T20:36:16.400Z,81.51
2023-04-19T20:38:46.162Z,81.39
2023-04-19T20:41:25.393Z,81.07
2023-04-19T20:43:56.953Z,81.19
2023-04-19T20:46:26.083Z,81.22
2023-04-19T20:48:54.583Z,81.15
2023-04-19T20:51:24.379Z,80.84
2023-04-19T20:53:52.770Z,81.11
2023-04-19T20:56:21.612Z,81.28
2023-04-19T20:58:50.077Z,80.87
2023-04-19T21:01:18.561Z,81.15
2023-04-19T21:03:47.507Z,81.33
2023-04-19T21:06:16.167Z,81.13
2023-04-19T21:08:46.146Z,81.17
2023-04-19T21:11:14.558Z,81.34
2023-04-19T21:13:42.881Z,81.35
2023-04-19T21:16:13.074Z,81.49
2023-04-19T21:18:41.514Z,81.72
2023-04-19T21:21:09.918Z,81.87
2023-04-19T21:23:43.264Z,82.06
2023-04-19T21:26:15.196Z,81.33
2023-04-19T21:28:43.568Z,81.55
2023-04-19T21:31:14.930Z,81.71
2023-04-19T21:33:43.355Z,81.76
2023-04-19T21:36:13.515Z,81.62
2023-04-19T21:38:41.931Z,81.70
2023-04-19T21:41:12.275Z,81.95
2023-04-19T21:43:42.012Z,82.00
2023-04-19T21:46:11.069Z,82.05
2023-04-19T21:48:39.620Z,81.83
2023-04-19T21:51:08.172Z,81.77
2023-04-19T21:53:36.554Z,81.69
2023-04-19T21:56:05.274Z,81.73
2023-04-19T21:58:33.750Z,81.47
2023-04-19T22:01:03.551Z,81.61
2023-04-19T22:03:32.784Z,81.33
2023-04-19T22:06:02.270Z,81.14
2023-04-19T22:08:32.917Z,81.23
2023-04-19T22:11:08.330Z,81.56
2023-04-19T22:13:37.394Z,81.01
2023-04-19T22:16:08.223Z,81.18
2023-04-19T22:18:36.715Z,81.69
2023-04-19T22:21:06.383Z,81.12
2023-04-19T22:23:34.740Z,81.45
2023-04-19T22:26:03.209Z,81.34
2023-04-19T22:28:31.594Z,81.27
2023-04-19T22:31:00.007Z,81.20
2023-04-19T22:33:29.724Z,81.23
2023-04-19T22:35:58.161Z,81.40
2023-04-19T22:38:26.539Z,81.33
2023-04-19T22:40:55.021Z,81.31
2023-04-19T22:43:23.389Z,81.27
2023-04-19T22:45:51.841Z,81.19
2023-04-19T22:48:20.210Z,81.30
2023-04-19T22:50:50.377Z,81.34
2023-04-19T22:53:18.717Z,81.20
2023-04-19T22:55:47.321Z,81.12
2023-04-19T22:58:15.834Z,81.34
2023-04-19T23:00:44.215Z,81.16
2023-04-19T23:03:18.419Z,81.37
2023-04-19T23:05:47.261Z,81.29
2023-04-19T23:08:17.579Z,81.44
2023-04-19T23:10:45.970Z,81.24
2023-04-19T23:13:15.847Z,81.46
2023-04-19T23:15:44.581Z,81.28
2023-04-19T23:18:14.326Z,81.15
2023-04-19T23:20:43.052Z,81.70
2023-04-19T23:23:11.402Z,81.54
2023-04-19T23:25:41.161Z,81.52
2023-04-19T23:28:11.962Z,81.46
2023-04-19T23:30:41.114Z,81.33
2023-04-19T23:33:09.465Z,81.35
2023-04-19T23:35:37.842Z,81.23
2023-04-19T23:38:14.627Z,81.02
2023-04-19T23:40:44.367Z,81.27
2023-04-19T23:43:13.278Z,81.19
2023-04-19T23:45:41.704Z,81.17
2023-04-19T23:48:10.037Z,81.47
2023-04-19T23:50:38.351Z,81.29
2023-04-19T23:53:07.249Z,81.07
2023-04-19T23:55:35.628Z,81.50
2023-04-19T23:58:05.475Z,81.67
